createdAt,value
2022-09-04T01:02:58.631Z,98406.09
2022-09-04T01:05:57.865Z,98400.84
2022-09-04T01:08:56.716Z,98405.69
2022-09-04T01:14:25.535Z,98405.91
2022-09-04T01:17:01.386Z,98401.72
2022-09-04T01:19:50.926Z,98397.53
2022-09-04T01:22:36.492Z,98402.06
2022-09-04T01:25:14.317Z,98397.53
2022-09-04T01:27:51.533Z,98402.25
2022-09-04T01:30:21.146Z,98389.38
2022-09-04T01:33:00.790Z,98398.22
2022-09-04T01:35:35.408Z,98394.47
2022-09-04T01:38:14.068Z,98402.53
2022-09-04T01:40:48.146Z,98400.06
2022-09-04T01:43:21.108Z,98393.22
2022-09-04T01:46:13.046Z,98393.66
2022-09-04T01:48:53.725Z,98391.06
2022-09-04T01:51:29.098Z,98390.78
2022-09-04T01:54:08.449Z,98394.06
2022-09-04T01:56:42.302Z,98381.34
2022-09-04T01:59:19.257Z,98397.75
2022-09-04T02:01:53.647Z,98393.63
2022-09-04T02:04:27.742Z,98399.06
2022-09-04T02:07:06.253Z,98391.66
2022-09-04T02:09:42.301Z,98399.56
2022-09-04T02:12:27.333Z,98409.31
2022-09-04T02:15:07.319Z,98423.84
2022-09-04T02:17:43.605Z,98413.44
2022-09-04T02:20:22.461Z,98415.97
2022-09-04T02:23:00.076Z,98406.00
2022-09-04T02:25:33.317Z,98403.28
2022-09-04T02:28:15.416Z,98398.47
2022-09-04T02:30:54.464Z,98396.91
2022-09-04T02:33:30.041Z,98402.31
2022-09-04T02:36:03.517Z,98398.56
2022-09-04T02:38:39.832Z,98397.63
2022-09-04T02:41:19.580Z,98397.47
2022-09-04T02:44:03.152Z,98397.47
2022-09-04T02:46:43.388Z,98401.59
2022-09-04T02:49:20.226Z,98398.44
2022-09-04T02:51:59.068Z,98394.59
2022-09-04T02:54:41.812Z,98397.75
2022-09-04T02:57:20.288Z,98405.63
2022-09-04T03:00:04.785Z,98395.50
2022-09-04T03:02:39.164Z,98395.72
2022-09-04T03:05:18.819Z,98390.72
2022-09-04T03:07:57.391Z,98397.31
2022-09-04T03:10:31.309Z,98391.19
2022-09-04T03:13:06.273Z,98389.16
2022-09-04T03:15:44.373Z,98393.63
2022-09-04T03:18:20.897Z,98377.03
2022-09-04T03:20:55.775Z,98397.66
2022-09-04T03:23:33.706Z,98394.63
2022-09-04T03:26:16.615Z,98393.34
2022-09-04T03:29:00.087Z,98396.88
2022-09-04T03:31:36.988Z,98398.97
2022-09-04T03:34:16.190Z,98399.16
2022-09-04T03:36:58.597Z,98400.16
2022-09-04T03:39:39.071Z,98381.19
2022-09-04T03:42:16.814Z,98397.47
2022-09-04T03:44:59.899Z,98397.66
2022-09-04T03:47:36.271Z,98395.28
2022-09-04T03:50:16.869Z,98392.84
2022-09-04T03:52:56.074Z,98392.84
2022-09-04T03:55:57.509Z,98386.78
2022-09-04T03:58:37.043Z,98388.09
2022-09-04T04:01:13.253Z,98405.34
2022-09-04T04:04:01.428Z,98408.38
2022-09-04T04:06:39.469Z,98407.56
2022-09-04T04:09:30.617Z,98402.81
2022-09-04T04:12:13.462Z,98411.91
2022-09-04T04:14:57.149Z,98407.56
2022-09-04T04:17:44.748Z,98415.25
2022-09-04T04:20:22.956Z,98408.53
2022-09-04T04:23:17.687Z,98423.25
2022-09-04T04:26:04.820Z,98420.66
2022-09-04T04:28:51.633Z,98431.03
2022-09-04T04:31:27.726Z,98432.66
2022-09-04T04:34:03.796Z,98437.25
2022-09-04T04:36:40.271Z,98414.56
2022-09-04T04:39:20.290Z,98439.44
2022-09-04T04:42:07.693Z,98428.28
2022-09-04T04:45:29.547Z,98452.34
2022-09-04T04:48:29.939Z,98444.66
2022-09-04T04:51:09.543Z,98437.25
2022-09-04T04:53:46.889Z,98447.78
2022-09-04T04:56:23.839Z,98450.00
2022-09-04T04:59:04.406Z,98450.81
2022-09-04T05:01:46.800Z,98449.47
2022-09-04T05:04:18.876Z,98458.28
2022-09-04T05:06:55.136Z,98462.63
2022-09-04T05:09:30.063Z,98465.69
2022-09-04T05:12:10.469Z,98467.13
2022-09-04T05:14:51.449Z,98467.28
2022-09-04T05:17:27.837Z,98474.00
2022-09-04T05:20:21.470Z,98483.72
2022-09-04T05:22:57.671Z,98481.97
2022-09-04T05:25:37.965Z,98482.41
2022-09-04T05:28:21.227Z,98486.72
2022-09-04T05:30:57.161Z,98486.09
2022-09-04T05:33:34.791Z,98485.88
2022-09-04T05:36:10.957Z,98482.66
2022-09-04T05:38:48.725Z,98488.31
2022-09-04T05:41:31.693Z,98489.72
2022-09-04T05:44:18.613Z,98499.47
2022-09-04T05:46:58.659Z,98480.16
2022-09-04T05:49:43.433Z,98493.22
2022-09-04T05:52:37.249Z,98493.16
2022-09-04T05:55:23.914Z,98495.34
2022-09-04T05:58:02.749Z,98500.16
2022-09-04T06:00:45.142Z,98512.38
2022-09-04T06:03:33.871Z,98513.16
2022-09-04T06:06:09.869Z,98516.16
2022-09-04T06:09:12.469Z,98517.75
2022-09-04T06:12:19.331Z,98519.50
2022-09-04T06:15:22.764Z,98522.50
2022-09-04T06:18:08.303Z,98525.66
2022-09-04T06:20:50.846Z,98533.19
2022-09-04T06:23:43.540Z,98535.09
2022-09-04T06:26:35.552Z,98536.84
2022-09-04T06:29:12.757Z,98527.66
2022-09-04T06:31:59.672Z,98535.06
2022-09-04T06:34:55.286Z,98537.09
2022-09-04T06:37:36.111Z,98540.03
2022-09-04T06:40:20.426Z,98529.91
2022-09-04T06:42:59.853Z,98533.59
2022-09-04T06:45:44.367Z,98535.16
2022-09-04T06:48:23.085Z,98540.97
2022-09-04T06:51:07.751Z,98546.91
2022-09-04T06:53:42.510Z,98549.16
2022-09-04T06:56:29.433Z,98550.69
2022-09-04T06:59:26.962Z,98543.66
2022-09-04T07:02:10.857Z,98544.56
2022-09-04T07:04:51.308Z,98543.22
2022-09-04T07:07:26.278Z,98537.38
2022-09-04T07:10:01.321Z,98550.94
2022-09-04T07:12:54.054Z,98547.75
2022-09-04T07:15:56.907Z,98553.34
2022-09-04T07:18:40.794Z,98554.53
2022-09-04T07:21:17.274Z,98558.19
2022-09-04T07:23:55.812Z,98550.16
2022-09-04T07:26:35.227Z,98550.44
2022-09-04T07:29:30.401Z,98561.84
2022-09-04T07:32:05.777Z,98564.34
2022-09-04T07:34:44.522Z,98573.00
2022-09-04T07:37:25.016Z,98576.22
2022-09-04T07:40:04.855Z,98586.00
2022-09-04T07:42:44.218Z,98575.53
2022-09-04T07:45:22.989Z,98572.78
2022-09-04T07:47:58.422Z,98587.13
2022-09-04T07:50:32.982Z,98593.63
2022-09-04T07:53:20.695Z,98596.72
